METAR LOCAUX

2019/09/22 13:00 LFST 221300Z AUTO VRB02KT CAVOK 23/13 Q1010 NOSIG
2019/09/22 12:50 EDSB 221250Z 33004KT 270V010 CAVOK 21/12 Q1010
2019/09/22 13:00 LFGA 221300Z AUTO VRB03KT CAVOK 24/14 Q1009
www.noaa.gov

Ne pas utiliser pour préparer ou effectuer un vol: Utilisez la documentation officielle disponible sur aviation.meteo.fr (Aéroweb)


"Le soleil du matin ne dure pas forcément toute la journée."

Animation satellite IR

Meteociel.fr

"Derrière chaque nuage se cache le ciel bleu."

Radar pluie

Infoclimat.fr

"Si tu veux l’arc-en-ciel, tu dois supporter la pluie."
Dolly Parton

Nébulosité (octas)

Meteociel.fr

"Le soleil est souvent obscurci par les nuages et la raison par les passions."
Démophile

Impacts de foudre

www.meteo60.fr

"Celui que frappe la foudre n'entend pas le tonnerre."

Vigilance météo

vigilance-meteo.fr

"Tout nuage n'enfante pas une tempête."
William Shakespeare

TAF locaux

2019/09/22 12:21 TAF LFST 221109Z 2212/2312 18004KT 9999 FEW050 SCT090 TEMPO 2220/2306 4000 RA FEW005 BKN015 OVC040 PROB30 TEMPO 2220/2223 29015G25KT TSRA SCT060CB
2019/09/22 12:27 TAF EDSB 221100Z 2212/2312 VRB03KT CAVOK PROB40 TEMPO 2222/2301 4000 SHRA BKN040CB BECMG 2223/2302 22008KT TEMPO 2301/2307 4000 RA BKN012
www.noaa.gov

Ne pas utiliser pour préparer ou effectuer un vol: Utilisez la documentation officielle disponible sur aviation.meteo.fr (Aéroweb)


"Les jours où le ciel est gris, le soleil n'a pas disparu à tout jamais."
Arnaud Desjardins

Prévisions 7 jours


Meteoblue.com

"Quand les crapauds chantent, le beau temps s'avance !"